Viking Amber — 9V7985 — position and weather

sailwx.info

Track history (hours):
 
Tides and Currents Weather Stations Pressure Air Temp Water Temp Dewpoint Dewpoint Depression Visibility Wind Speed Wind Dir Waves Ship Positions

Viking Amber

Last reported at 2017-Feb-10 23:33 UTC. Time now 2017-Feb-21 11:58 UTC.
Position N 01°13' E 103°29'.
Warning: this ship's position is 10 days out of date.

Length 167 m; draft 8.2 m.

Type: Other ship. MMSI: 563255000.

Date/timePositionNaut miles runAvg speedWind from/ knotsBaromVisibWave heightAir tempDewpointWater temp
2017-Feb-10 23:33N 01°13' E 103°29'1111.1
2017-Feb-10 22:33N 01°13' E 103°41'6 6.2
2017-Feb-10 21:33N 01°17' E 103°45'0 0.0
2017-Feb-10 20:33N 01°17' E 103°45'0 0.0
2017-Feb-10 19:33N 01°17' E 103°45'0 0.0
2017-Feb-10 18:33N 01°17' E 103°45'0 0.0
2017-Feb-10 17:33N 01°17' E 103°45'0 0.0
2017-Feb-10 16:30N 01°17' E 103°45'0 0.0
2017-Feb-10 15:27N 01°17' E 103°45'0 0.0
2017-Feb-10 14:33N 01°17' E 103°45'0 0.0
2017-Feb-10 13:33N 01°17' E 103°45'1 0.8
2017-Feb-10 12:34N 01°17' E 103°45'9 7.5
2017-Feb-10 11:18N 01°16' E 103°54'0 0.0
2017-Feb-09 11:33N 01°16' E 103°54'  
2017-Feb-05 05:33N 24°18' E 118°11'8 8.3
2017-Feb-05 04:33N 24°25' E 118°05'2 0.3
2017-Feb-04 21:33N 24°26' E 118°03'  
Track history (hours):
 
Tides and Currents Weather Stations Pressure Air Temp Water Temp Dewpoint Dewpoint Depression Visibility Wind Speed Wind Dir Waves Ship Positions

Viking Amber

Last reported at 2017-Feb-10 23:33 UTC. Time now 2017-Feb-21 11:58 UTC.
Position N 01°13' E 103°29'.
Warning: this ship's position is 10 days out of date.

Length 167 m; draft 8.2 m.

Type: Other ship. MMSI: 563255000.

Date/timePositionNaut miles runAvg speedWind from/ knotsBaromVisibWave heightAir tempDewpointWater temp
2017-Feb-10 23:33N 01°13' E 103°29'1111.1
2017-Feb-10 22:33N 01°13' E 103°41'6 6.2
2017-Feb-10 21:33N 01°17' E 103°45'0 0.0
2017-Feb-10 20:33N 01°17' E 103°45'0 0.0
2017-Feb-10 19:33N 01°17' E 103°45'0 0.0
2017-Feb-10 18:33N 01°17' E 103°45'0 0.0
2017-Feb-10 17:33N 01°17' E 103°45'0 0.0
2017-Feb-10 16:30N 01°17' E 103°45'0 0.0
2017-Feb-10 15:27N 01°17' E 103°45'0 0.0
2017-Feb-10 14:33N 01°17' E 103°45'0 0.0
2017-Feb-10 13:33N 01°17' E 103°45'1 0.8
2017-Feb-10 12:34N 01°17' E 103°45'9 7.5
2017-Feb-10 11:18N 01°16' E 103°54'0 0.0
2017-Feb-09 11:33N 01°16' E 103°54'  
2017-Feb-05 05:33N 24°18' E 118°11'8 8.3
2017-Feb-05 04:33N 24°25' E 118°05'2 0.3
2017-Feb-04 21:33N 24°26' E 118°03'  

Dump ship's entire track history